• Join FlightAware (Why Join?)
  • Login
  • US Flag 
02:03AM EDT


 

Airport Tracker/Info


-or-


 

Live Flight TrackerFlight Track Log ✈ N143RD ✈ 23-Jul-2013 ✈ KFRG - KUUU

Flight Track Log - Related Links

Times and Time Zones

All times are in EDT time to prevent confusion due to time zone crossing. See the N143RD flight status page for this flight to view local times or setup timezone preferences in your user account.

Time Position Orientation Groundspeed Altitude Reporting Facility
EDT Latitude Longitude Course Direction KTS MPH feet Rate Location/Type
07:10PM 40.7000 -73.4500 24° Northeast 86 99 1,700  Level New York TRACON
07:11PM 40.6833 -73.4833 237° Southwest 74 85 2,400 600 Climbing New York TRACON
07:12PM 40.6833 -73.5000 270° West 79 91 3,000 600 Climbing New York TRACON
07:13PM 40.7000 -73.5167 323° Northwest 80 92 3,600 600 Climbing New York TRACON
07:14PM 40.8807 -73.3013 21° North  Level FlightAware Approximate
07:14PM 40.7214 -73.4782 54° Northeast  Level FlightAware Approximate
07:15PM 40.9137 -73.2818 24° Northeast  Level FlightAware Approximate
07:15PM 40.7500 -73.5000 54° Northeast 88 101 4,900  Level New York TRACON
07:16PM 40.7667 -73.4833 37° Northeast 94 108 5,500 480 Climbing New York TRACON
07:17PM 40.8000 -73.4667 21° North 109 125 5,900 360 Climbing New York TRACON
07:18PM 40.8167 -73.4500 37° Northeast 121 139 6,300 360 Climbing New York TRACON
07:19PM 40.8500 -73.4167 37° Northeast 123 142 6,700 120 Climbing New York TRACON
07:21PM 40.8788 -73.3299 21° North  Level Estimated
07:23PM 40.9667 -73.2667 29° Northeast 155 178 7,100  Level New York TRACON
07:25PM 41.0167 -73.1833 51° Northeast 154 177 7,000 -60 Descending New York TRACON
07:26PM 41.0500 -73.1333 49° Northeast 154 177 7,000  Level New York TRACON
07:27PM 41.0667 -73.1000 56° Northeast 150 173 7,000  Level New York TRACON
07:28PM 40.9799 -73.0229 29° Northeast  Level Estimated
07:29PM 41.0905 -73.0103 65° Northeast  Level Estimated
07:30PM 41.1500 -72.9667 65° Northeast 154 177 7,000  Level New York TRACON
07:32PM 41.2000 -72.8833 51° Northeast 152 175 7,000  Level New York TRACON
07:33PM 41.2333 -72.8333 48° Northeast 146 168 7,000  Level New York TRACON
07:34PM 41.2500 -72.8000 56° Northeast 148 170 7,000  Level New York TRACON
07:35PM 41.2833 -72.7500 48° Northeast 147 169 7,000  Level New York TRACON
07:36PM 41.3000 -72.7167 56° Northeast 150 173 7,000  Level New York TRACON
07:38PM 41.3500 -72.6167 56° Northeast 151 174 7,000  Level New York TRACON
07:38PM 41.3542 -72.5811 81° East 147 169 7,000  Level Boston Center
07:39PM 41.3667 -72.5453 65° Northeast 150 173 7,000  Level Boston Center
07:40PM 41.3667 -72.4872 90° East 152 175 7,000  Level Boston Center
07:41PM 41.3625 -72.4319 96° East 164 189 7,000  Level Boston Center
07:42PM 41.3583 -72.3736 95° East 156 180 7,000  Level Boston Center
07:43PM 41.3686 -72.3183 76° East 147 169 7,000  Level Boston Center
07:44PM 41.3769 -72.2686 77° East 148 170 7,000  Level Boston Center
07:45PM 41.3853 -72.2133 79° East 151 174 7,000 -180 Level Boston Center
07:46PM 41.3956 -72.1578 76° East 152 175 6,700 -480 Descending Boston Center
07:47PM 41.4078 -72.0942 76° East 167 192 6,100 -540 Descending Boston Center
07:48PM 41.4161 -72.0333 80° East 157 181 5,600 -600 Descending Boston Center
07:49PM 41.4219 -71.9778 82° East 161 185 5,000 -600 Descending Boston Center
07:50PM 41.4322 -71.9197 77° East 155 178 4,500 -480 Descending Boston Center
07:51PM 41.4422 -71.8642 76° East 158 182 4,100 -420 Descending Boston Center
07:52PM 41.4503 -71.8058 80° East 161 185 3,700 -420 Descending Boston Center
07:53PM 41.4606 -71.7447 77° East 162 186 3,300 -420 Descending Boston Center
07:54PM 41.4706 -71.6894 76° East 153 176 2,900 -240 Descending Boston Center
07:55PM 41.4764 -71.6367 82° East 142 163 2,900  Level Boston Center
07:56PM 41.4864 -71.5783 77° East 148 170 3,000 -120 Climbing Boston Center
07:57PM 41.4942 -71.5200 80° East 158 182 2,700 -300 Descending Boston Center
07:58PM 41.5022 -71.4700 78° East 159 183 2,500 -300 Descending Boston Center